createdAt,value
2018-12-16T00:00:09.877Z,66.38
2018-12-16T00:05:27.374Z,66.90
2018-12-16T00:10:44.848Z,66.41
2018-12-16T00:16:02.420Z,67.17
2018-12-16T00:21:20.191Z,66.45
2018-12-16T00:26:49.428Z,65.99
2018-12-16T00:32:06.921Z,66.51
2018-12-16T00:37:24.673Z,66.81
2018-12-16T00:42:42.166Z,67.11
2018-12-16T00:47:59.661Z,66.35
2018-12-16T00:53:17.207Z,67.34
2018-12-16T00:58:34.684Z,67.67
2018-12-16T01:03:52.149Z,67.55
2018-12-16T01:09:09.729Z,68.20
2018-12-16T01:14:27.312Z,67.88
2018-12-16T01:19:44.785Z,68.57
2018-12-16T01:25:02.264Z,67.48
2018-12-16T01:30:19.738Z,67.77
2018-12-16T01:35:37.238Z,68.11
2018-12-16T01:40:54.696Z,67.51
2018-12-16T01:46:12.414Z,67.99
2018-12-16T01:51:30.167Z,67.45
2018-12-16T01:56:47.897Z,67.49
2018-12-16T02:02:05.389Z,67.48
2018-12-16T02:07:22.853Z,67.21
2018-12-16T02:12:40.471Z,66.57
2018-12-16T02:17:57.948Z,67.32
2018-12-16T02:23:15.782Z,66.73
2018-12-16T02:28:33.257Z,67.22
2018-12-16T02:33:50.730Z,66.41
2018-12-16T02:39:08.284Z,68.35
2018-12-16T02:44:25.754Z,71.94
2018-12-16T02:49:43.218Z,75.75
2018-12-16T02:55:00.687Z,77.13
2018-12-16T03:00:18.311Z,78.66
2018-12-16T03:05:35.849Z,78.96
2018-12-16T03:10:53.330Z,79.98
2018-12-16T03:16:10.813Z,81.11
2018-12-16T03:21:28.293Z,81.20
2018-12-16T03:26:45.766Z,80.93
2018-12-16T03:32:03.580Z,80.90
2018-12-16T03:37:21.334Z,80.11
2018-12-16T03:42:38.804Z,79.45
2018-12-16T03:47:56.272Z,79.12
2018-12-16T03:53:19.666Z,78.79
2018-12-16T03:58:33.238Z,78.40
2018-12-16T04:03:50.714Z,78.93
2018-12-16T04:09:08.199Z,79.65
2018-12-16T04:14:25.676Z,80.59
2018-12-16T04:19:43.146Z,82.14
2018-12-16T04:25:00.622Z,82.84
2018-12-16T04:30:18.102Z,84.67
2018-12-16T04:35:35.569Z,84.68
2018-12-16T04:40:53.021Z,84.27
2018-12-16T04:46:10.489Z,83.74
2018-12-16T04:51:27.971Z,83.99
2018-12-16T04:56:45.441Z,83.85
2018-12-16T05:02:02.933Z,84.25
2018-12-16T05:07:20.498Z,83.69
2018-12-16T05:12:38.273Z,84.11
2018-12-16T05:17:55.756Z,83.81
2018-12-16T05:23:13.218Z,83.36
2018-12-16T05:28:30.693Z,83.70
2018-12-16T05:33:48.168Z,83.83
2018-12-16T05:39:06.249Z,83.86
2018-12-16T05:44:23.711Z,83.37
2018-12-16T05:49:41.662Z,83.68
2018-12-16T05:54:59.153Z,83.84
2018-12-16T06:00:16.625Z,84.03
2018-12-16T06:05:34.096Z,83.46
2018-12-16T06:10:51.561Z,83.32
2018-12-16T06:16:09.050Z,83.77
2018-12-16T06:21:26.515Z,83.10
2018-12-16T06:26:43.988Z,83.29
2018-12-16T06:32:01.456Z,83.00
2018-12-16T06:37:18.926Z,82.54
2018-12-16T06:42:36.755Z,82.55
2018-12-16T06:47:54.252Z,82.75
2018-12-16T06:53:11.722Z,83.21
2018-12-16T06:58:29.368Z,83.23
2018-12-16T07:03:46.840Z,83.28
2018-12-16T07:09:05.984Z,82.96
2018-12-16T07:14:23.440Z,83.06
2018-12-16T07:19:40.940Z,82.71
2018-12-16T07:24:58.430Z,82.46
2018-12-16T07:30:16.017Z,82.59
2018-12-16T07:35:33.481Z,82.71
2018-12-16T07:40:51.513Z,83.12
2018-12-16T07:46:09.180Z,83.47
2018-12-16T07:51:26.713Z,84.13
2018-12-16T07:56:44.188Z,84.19
2018-12-16T08:02:01.742Z,86.18
2018-12-16T08:07:19.332Z,85.29
2018-12-16T08:12:36.794Z,85.21
2018-12-16T08:17:54.268Z,85.45
2018-12-16T08:23:11.751Z,85.43
2018-12-16T08:28:29.237Z,85.83
2018-12-16T08:33:46.704Z,85.99
2018-12-16T08:39:05.947Z,86.44
2018-12-16T08:44:23.465Z,86.83
2018-12-16T08:49:40.998Z,87.39
2018-12-16T08:54:58.722Z,87.60
2018-12-16T09:00:16.457Z,89.03
2018-12-16T09:05:34.196Z,89.70
2018-12-16T09:10:51.669Z,89.64
2018-12-16T09:16:09.131Z,89.45
2018-12-16T09:21:26.807Z,88.54
2018-12-16T09:26:44.280Z,88.88
2018-12-16T09:32:02.812Z,89.02
2018-12-16T09:37:20.761Z,89.26
2018-12-16T09:42:38.318Z,88.73
2018-12-16T09:47:56.193Z,89.00
2018-12-16T09:53:14.053Z,88.47
2018-12-16T09:58:31.529Z,88.16
2018-12-16T10:03:49.002Z,87.55
2018-12-16T10:09:07.671Z,87.49
2018-12-16T10:14:25.141Z,87.29
2018-12-16T10:19:42.613Z,87.46
2018-12-16T10:25:00.078Z,87.43
2018-12-16T10:30:17.545Z,87.49
2018-12-16T10:35:35.008Z,87.40
2018-12-16T10:40:52.469Z,87.83
2018-12-16T10:46:09.929Z,88.11
2018-12-16T10:51:27.413Z,87.62
2018-12-16T10:56:44.896Z,88.32
2018-12-16T11:02:02.353Z,87.54
2018-12-16T11:07:19.854Z,88.24
2018-12-16T11:12:37.912Z,89.48
2018-12-16T11:17:55.376Z,90.19
2018-12-16T11:23:13.874Z,89.65
2018-12-16T11:28:31.354Z,89.67
2018-12-16T11:33:48.816Z,89.80
2018-12-16T11:39:07.797Z,90.42
2018-12-16T11:44:25.505Z,90.62
2018-12-16T11:49:44.429Z,90.67
2018-12-16T11:55:02.171Z,90.60
2018-12-16T12:00:20.065Z,90.97
2018-12-16T12:05:37.700Z,91.76
2018-12-16T12:10:55.227Z,91.72
2018-12-16T12:16:12.689Z,91.73
2018-12-16T12:21:31.350Z,91.58
2018-12-16T12:26:48.809Z,91.99
2018-12-16T12:32:06.363Z,91.92
2018-12-16T12:37:24.002Z,92.27
2018-12-16T12:42:41.641Z,91.97
2018-12-16T12:47:59.128Z,92.49
2018-12-16T12:53:16.667Z,92.46
2018-12-16T12:58:34.272Z,93.06
2018-12-16T13:03:51.724Z,92.85
2018-12-16T13:09:09.194Z,93.01
2018-12-16T13:14:26.734Z,93.24
2018-12-16T13:19:44.324Z,93.23
2018-12-16T13:25:13.757Z,93.92
2018-12-16T13:30:31.228Z,93.96
2018-12-16T13:35:48.690Z,94.15
2018-12-16T13:41:06.172Z,94.02
2018-12-16T13:46:23.629Z,93.95
2018-12-16T13:51:41.088Z,94.24
2018-12-16T13:56:58.556Z,94.21
2018-12-16T14:02:16.037Z,95.29
2018-12-16T14:07:33.505Z,92.74
2018-12-16T14:12:50.964Z,93.72
2018-12-16T14:18:08.438Z,92.40
2018-12-16T14:23:25.919Z,91.84
2018-12-16T14:28:43.450Z,92.60
2018-12-16T14:34:00.976Z,93.05
2018-12-16T14:39:18.445Z,93.21
2018-12-16T14:44:35.915Z,92.87
2018-12-16T14:49:53.383Z,93.60
2018-12-16T14:55:10.845Z,93.35
2018-12-16T15:00:28.325Z,93.21
2018-12-16T15:05:45.797Z,92.87
2018-12-16T15:11:03.362Z,94.02
2018-12-16T15:16:21.572Z,93.11
2018-12-16T15:21:39.142Z,93.60
2018-12-16T15:26:56.617Z,93.11
2018-12-16T15:32:14.180Z,92.82
2018-12-16T15:37:31.660Z,92.97
2018-12-16T15:42:49.143Z,93.57
2018-12-16T15:48:06.649Z,93.76
2018-12-16T15:53:24.118Z,93.67
2018-12-16T15:58:41.602Z,93.80
2018-12-16T16:03:59.074Z,93.67
2018-12-16T16:09:16.536Z,93.42
2018-12-16T16:14:34.001Z,93.37
2018-12-16T16:19:51.472Z,93.93
2018-12-16T16:25:09.198Z,94.02
2018-12-16T16:30:26.663Z,93.87
2018-12-16T16:35:44.133Z,94.26
2018-12-16T16:41:01.982Z,93.95
2018-12-16T16:46:19.442Z,93.93
2018-12-16T16:51:36.916Z,93.78
2018-12-16T16:56:54.407Z,93.95
2018-12-16T17:02:11.878Z,94.43
2018-12-16T17:07:29.350Z,94.63
2018-12-16T17:12:47.078Z,94.82
2018-12-16T17:18:04.537Z,94.72
2018-12-16T17:23:22.016Z,94.42
2018-12-16T17:28:39.578Z,94.03
2018-12-16T17:33:57.043Z,93.83
2018-12-16T17:39:14.786Z,93.67
2018-12-16T17:44:32.256Z,93.64
2018-12-16T17:49:49.726Z,94.00
2018-12-16T17:55:07.364Z,93.67
2018-12-16T18:00:25.468Z,93.56
2018-12-16T18:05:42.945Z,93.90
2018-12-16T18:11:00.402Z,93.89
2018-12-16T18:16:17.857Z,93.76
2018-12-16T18:21:35.425Z,93.77
2018-12-16T18:26:52.897Z,93.88
2018-12-16T18:32:10.373Z,93.75
2018-12-16T18:37:27.923Z,93.81
2018-12-16T18:42:45.386Z,93.84
2018-12-16T18:48:02.924Z,94.18
2018-12-16T18:53:20.391Z,94.23
2018-12-16T18:58:38.379Z,94.01
2018-12-16T19:03:56.258Z,94.22
2018-12-16T19:09:13.964Z,93.71
2018-12-16T19:14:31.821Z,93.38
2018-12-16T19:19:49.320Z,93.16
2018-12-16T19:25:06.954Z,93.51
2018-12-16T19:30:24.741Z,93.24
2018-12-16T19:35:42.206Z,93.21
2018-12-16T19:40:59.760Z,92.92
2018-12-16T19:46:17.239Z,93.05
2018-12-16T19:51:34.691Z,92.78
2018-12-16T19:56:52.169Z,92.61
2018-12-16T20:02:09.654Z,92.59
2018-12-16T20:07:27.111Z,92.46
2018-12-16T20:12:44.569Z,92.29
2018-12-16T20:18:02.048Z,92.17
2018-12-16T20:23:19.507Z,91.88
2018-12-16T20:28:36.968Z,92.01
2018-12-16T20:33:54.437Z,92.39
2018-12-16T20:39:11.980Z,92.39
2018-12-16T20:44:29.480Z,92.16
2018-12-16T20:49:46.956Z,92.19
2018-12-16T20:55:06.098Z,91.96
2018-12-16T21:00:23.631Z,91.47
2018-12-16T21:05:41.103Z,91.41
2018-12-16T21:11:00.558Z,91.17
2018-12-16T21:16:23.436Z,91.45
2018-12-16T21:21:40.917Z,91.14
2018-12-16T21:26:58.575Z,91.04
2018-12-16T21:32:16.037Z,91.23
2018-12-16T21:37:33.493Z,91.42
2018-12-16T21:42:50.968Z,91.24
2018-12-16T21:48:08.435Z,91.20
2018-12-16T21:53:25.909Z,90.90
2018-12-16T21:58:43.377Z,90.96
2018-12-16T22:04:00.836Z,90.68
2018-12-16T22:09:18.330Z,90.74
2018-12-16T22:14:35.788Z,91.20
2018-12-16T22:19:53.254Z,91.03
2018-12-16T22:25:10.720Z,91.06
2018-12-16T22:30:28.489Z,91.27
2018-12-16T22:35:45.954Z,91.62
2018-12-16T22:41:03.433Z,91.75
2018-12-16T22:46:21.386Z,91.48
2018-12-16T22:51:38.858Z,91.65
2018-12-16T22:56:56.328Z,91.40
2018-12-16T23:02:13.795Z,91.55
2018-12-16T23:07:31.259Z,91.33
2018-12-16T23:12:48.731Z,91.43
2018-12-16T23:18:06.464Z,91.51
2018-12-16T23:23:23.929Z,91.82
2018-12-16T23:28:41.493Z,92.04
2018-12-16T23:33:58.970Z,92.17
2018-12-16T23:39:16.423Z,92.47
2018-12-16T23:44:33.888Z,92.52
2018-12-16T23:49:51.365Z,92.19
2018-12-16T23:55:09.087Z,92.42
